Weather reports worldwide

Advertisment
San Fernando, Spain (8453): temperature & dewpoint: 26.10.2020 01:00:00 - 01.11.2020 01:00:00 (CET)San Fernando, Spain (8453): wind speed & gusts: 26.10.2020 01:00:00 - 01.11.2020 01:00:00 (CET)San Fernando, Spain (8453): wind direction: 26.10.2020 01:00:00 - 01.11.2020 01:00:00 (CET)San Fernando, Spain (8453): reduced air pressure: 26.10.2020 01:00:00 - 01.11.2020 01:00:00 (CET)San Fernando, Spain (8453): precipitation: 26.10.2020 01:00:00 - 01.11.2020 01:00:00 (CET)
Date & Time tt [°C] td [°C] ff [km/h] ff [kn] fx [km/h] fx [kn] dd ppp [hPa] rr [mm]
01.11.2020 01:00:00 - - - - - - - - -
01.11.2020 00:00:00 17,0 14,2 4 2 9 5 E 1024,7 0,0
31.10.2020 23:00:00 17,3 14,7 4 2 8 5 ESE 1024,6 0,0
31.10.2020 22:00:00 18,4 16,6 1 1 13 7 NNE 1024,9 0,0
31.10.2020 21:00:00 18,9 16,5 6 4 12 6 NW 1024,5 0,0
31.10.2020 20:00:00 19,2 16,0 5 3 9 5 NW 1024,0 0,0
31.10.2020 19:00:00 19,3 15,0 6 3 14 8 NW 1023,4 -
31.10.2020 18:00:00 20,6 13,6 6 3 15 8 NW 1023,2 0,0
31.10.2020 17:00:00 21,1 14,7 8 4 18 10 WNW 1023,5 0,0
31.10.2020 16:00:00 20,7 14,1 12 6 21 11 WNW 1023,5 0,0
31.10.2020 15:00:00 21,4 15,3 9 5 19 11 WNW 1023,7 0,0
31.10.2020 14:00:00 21,9 14,0 8 5 13 7 WNW 1024,0 0,0
31.10.2020 13:00:00 22,6 12,8 6 3 12 7 NW 1024,7 -
31.10.2020 12:00:00 21,7 13,1 4 2 10 6 NW 1025,6 0,0
31.10.2020 11:00:00 22,5 13,9 4 2 14 7 ENE 1025,7 0,0
31.10.2020 10:00:00 20,1 14,4 7 4 16 9 ESE 1025,1 0,0
31.10.2020 09:00:00 16,7 12,6 9 5 18 10 ESE 1024,8 0,0
31.10.2020 08:00:00 16,2 12,1 10 6 18 10 E 1024,1 0,0
31.10.2020 07:00:00 16,7 12,2 13 7 22 12 E 1023,9 -
31.10.2020 06:00:00 16,5 12,0 6 4 14 8 ENE 1023,7 0,0
31.10.2020 05:00:00 16,6 12,3 9 5 17 9 ESE 1023,2 0,0
31.10.2020 04:00:00 17,1 12,4 9 5 21 11 E 1023,4 0,0
31.10.2020 03:00:00 17,0 12,3 8 4 14 8 E 1023,3 0,0
31.10.2020 02:00:00 17,5 11,8 9 5 23 12 E 1023,7 0,0
31.10.2020 01:00:00 17,7 11,9 7 4 31 17 E 1023,5 -
31.10.2020 00:00:00 18,7 11,6 15 8 29 16 ESE 1023,4 0,0
30.10.2020 23:00:00 18,5 11,1 12 6 24 13 E 1023,3 0,0
30.10.2020 22:00:00 18,5 10,5 10 6 23 13 E 1022,9 0,0
30.10.2020 21:00:00 19,2 10,2 11 6 19 11 E 1022,8 0,0
30.10.2020 20:00:00 20,0 9,3 11 6 24 13 ESE 1022,5 0,0
30.10.2020 19:00:00 21,2 9,2 11 6 20 11 E 1022,1 -
30.10.2020 18:00:00 23,1 9,8 12 6 29 16 E 1022,0 0,0
30.10.2020 17:00:00 24,4 9,6 19 11 37 20 E 1021,9 0,0
30.10.2020 16:00:00 24,9 10,0 9 5 27 15 E 1021,9 0,0
30.10.2020 15:00:00 24,4 9,6 15 8 35 19 E 1022,1 0,0
30.10.2020 14:00:00 25,0 9,7 13 7 38 21 E 1022,3 0,0
30.10.2020 13:00:00 24,2 9,3 17 9 38 20 E 1022,8 -
30.10.2020 12:00:00 24,3 10,2 18 10 39 21 ESE 1023,0 0,0
30.10.2020 11:00:00 23,5 10,2 17 9 37 20 ESE 1023,2 0,0
30.10.2020 10:00:00 20,7 9,3 13 7 30 16 E 1023,2 0,0
30.10.2020 09:00:00 18,4 8,7 10 6 21 11 E 1022,8 0,0
30.10.2020 08:00:00 17,5 6,1 10 5 23 12 E 1022,5 0,0
30.10.2020 07:00:00 17,9 6,4 13 7 27 14 E 1022,3 -
30.10.2020 06:00:00 17,7 7,1 15 8 27 15 E 1022,1 0,0
30.10.2020 05:00:00 18,0 7,7 11 6 21 11 ENE 1022,0 0,0
30.10.2020 04:00:00 18,1 6,8 10 5 24 13 E 1022,4 0,0
30.10.2020 03:00:00 18,6 7,0 14 7 29 15 E 1022,4 0,0
30.10.2020 02:00:00 19,3 7,7 16 8 34 19 E 1022,5 0,0
30.10.2020 01:00:00 19,5 6,5 16 9 32 18 E 1022,7 -
30.10.2020 00:00:00 19,3 4,6 12 7 32 18 E 1022,8 0,0
29.10.2020 23:00:00 20,2 3,4 19 11 37 20 E 1022,8 0,0
29.10.2020 22:00:00 20,0 2,9 20 11 36 19 ESE 1022,7 0,0
29.10.2020 21:00:00 20,2 3,4 19 10 37 20 ESE 1022,5 0,0
29.10.2020 20:00:00 19,8 3,0 15 8 29 15 ESE 1022,6 0,0
29.10.2020 19:00:00 - - - - - - - - -
29.10.2020 18:00:00 23,2 3,2 16 9 38 21 E 1021,7 0,0
29.10.2020 17:00:00 24,9 4,1 18 10 39 21 ESE 1021,6 0,0
29.10.2020 16:00:00 25,6 4,1 21 11 43 23 E 1021,3 0,0
29.10.2020 15:00:00 26,3 4,1 16 9 34 18 ESE 1021,7 0,0
29.10.2020 14:00:00 25,8 4,8 17 9 35 19 E 1022,3 0,0
29.10.2020 13:00:00 25,1 6,2 14 8 34 18 E 1023,3 -
29.10.2020 12:00:00 20,8 10,5 5 3 14 7 NE 1023,7 0,0
29.10.2020 11:00:00 20,7 10,2 10 6 20 11 ENE 1024,0 0,0
29.10.2020 10:00:00 18,7 9,7 5 3 10 6 ENE 1024,3 0,0
29.10.2020 09:00:00 15,5 7,6 7 4 14 7 E 1023,6 0,0
29.10.2020 08:00:00 14,5 6,5 8 4 13 7 E 1023,0 0,0
29.10.2020 07:00:00 14,8 6,4 8 5 16 8 E 1022,7 -
29.10.2020 06:00:00 15,2 6,5 10 5 19 10 E 1022,3 0,0
29.10.2020 05:00:00 15,2 8,0 10 5 19 10 E 1022,1 0,0
29.10.2020 04:00:00 15,1 9,0 8 4 13 7 E 1022,0 0,0
29.10.2020 03:00:00 15,5 10,0 6 4 11 6 E 1022,1 0,0
29.10.2020 02:00:00 16,1 11,0 7 4 10 5 E 1022,3 0,0
29.10.2020 01:00:00 16,4 11,8 7 4 13 7 ENE 1022,6 -
29.10.2020 00:00:00 16,8 13,2 6 3 14 7 ENE 1022,8 0,0
28.10.2020 23:00:00 17,4 14,5 4 2 11 6 NNE 1022,7 0,0
28.10.2020 22:00:00 17,8 14,1 3 2 13 7 NNE 1022,9 0,0
28.10.2020 21:00:00 18,3 13,9 6 4 17 9 NNW 1022,6 0,0
28.10.2020 20:00:00 19,0 14,0 8 5 14 8 NW 1022,1 0,0
28.10.2020 19:00:00 20,3 11,4 1 1 16 8 N 1021,4 -
28.10.2020 18:00:00 21,8 10,9 4 2 18 10 NNE 1021,1 0,0
28.10.2020 17:00:00 21,8 10,6 9 5 20 11 NE 1021,3 0,0
28.10.2020 16:00:00 21,9 10,4 11 6 28 15 NNE 1021,2 0,0
28.10.2020 15:00:00 21,8 10,6 10 5 30 16 NNE 1021,3 0,0
28.10.2020 14:00:00 21,0 10,2 6 4 26 14 N 1021,6 0,0
28.10.2020 13:00:00 20,6 10,4 7 4 23 13 N 1022,1 -
28.10.2020 12:00:00 19,0 9,4 9 5 21 11 NE 1022,8 0,0
28.10.2020 11:00:00 17,7 9,3 5 3 21 11 NNE 1022,7 0,0
28.10.2020 10:00:00 16,1 8,8 10 5 21 11 NNE 1022,3 0,0
28.10.2020 09:00:00 13,6 8,8 6 3 16 9 NNE 1021,6 0,0
28.10.2020 08:00:00 12,6 8,3 9 5 18 10 NNE 1021,1 0,0
28.10.2020 07:00:00 12,8 8,9 5 3 17 9 NE 1020,8 -
28.10.2020 06:00:00 13,0 9,7 8 4 16 9 NE 1020,6 0,0
28.10.2020 05:00:00 13,2 9,7 5 3 16 9 NE 1020,5 0,0
28.10.2020 04:00:00 13,3 9,6 8 4 13 7 ENE 1020,7 0,0
28.10.2020 03:00:00 14,8 9,6 4 2 17 9 NNE 1020,7 0,0
28.10.2020 02:00:00 16,9 12,0 9 5 18 10 NW 1020,8 0,0
28.10.2020 01:00:00 16,7 11,8 6 3 14 8 NNW 1021,3 -
28.10.2020 00:00:00 16,6 11,6 6 3 12 6 NW 1021,6 0,0
27.10.2020 23:00:00 16,8 10,9 5 3 13 7 NNW 1021,7 0,0
27.10.2020 22:00:00 16,9 10,0 7 4 16 9 NW 1021,7 0,0
27.10.2020 21:00:00 17,2 9,3 10 5 19 10 NW 1021,5 0,0
27.10.2020 20:00:00 17,1 9,0 9 5 16 9 NW 1021,4 0,0
27.10.2020 19:00:00 17,2 8,9 12 6 22 12 NW 1021,0 -
27.10.2020 18:00:00 17,7 9,3 11 6 22 12 WNW 1020,6 0,0
27.10.2020 17:00:00 17,5 8,7 15 8 27 14 WNW 1020,7 0,0
27.10.2020 16:00:00 17,8 8,4 15 8 24 13 WNW 1020,9 0,0
27.10.2020 15:00:00 17,8 8,1 14 7 25 14 W 1021,0 0,0
27.10.2020 14:00:00 18,4 6,8 13 7 22 12 WNW 1021,7 0,0
27.10.2020 13:00:00 18,1 6,2 10 6 20 11 NW 1022,6 -
27.10.2020 12:00:00 17,7 7,4 4 2 13 7 N 1023,1 0,0
27.10.2020 11:00:00 16,2 7,7 4 2 16 9 NNE 1023,1 0,0
27.10.2020 10:00:00 14,8 8,1 6 3 11 6 ENE 1022,8 0,0
27.10.2020 09:00:00 11,7 8,0 5 3 10 5 NE 1022,7 0,0
27.10.2020 08:00:00 11,1 7,8 3 2 9 5 NE 1022,2 0,0
27.10.2020 07:00:00 11,6 7,7 2 1 10 5 N 1021,9 -
27.10.2020 06:00:00 12,0 7,1 3 2 7 4 NNE 1021,8 0,0
27.10.2020 05:00:00 12,6 6,8 3 2 8 4 NNE 1021,5 0,0
27.10.2020 04:00:00 12,9 6,2 4 2 10 6 NE 1021,6 0,0
27.10.2020 03:00:00 13,8 6,7 4 2 10 6 N 1022,2 0,0
27.10.2020 02:00:00 14,7 7,0 4 2 10 6 NNE 1022,3 0,0
27.10.2020 01:00:00 15,2 7,3 4 2 11 6 NNE 1022,7 -
27.10.2020 00:00:00 16,1 7,6 4 2 13 7 NNE 1023,3 0,0
26.10.2020 23:00:00 17,3 7,0 7 4 18 10 NNW 1023,3 0,0
26.10.2020 22:00:00 17,6 7,3 11 6 21 11 NW 1023,0 0,0
26.10.2020 21:00:00 17,2 7,8 11 6 21 11 WNW 1022,6 0,0
26.10.2020 20:00:00 17,1 7,7 12 7 22 12 WNW 1022,4 0,0
26.10.2020 19:00:00 17,0 7,3 13 7 24 13 WNW 1022,0 -
26.10.2020 18:00:00 17,6 7,6 16 8 31 17 WNW 1021,7 0,0
26.10.2020 17:00:00 17,9 7,3 16 9 31 17 WNW 1021,5 0,0
26.10.2020 16:00:00 18,0 8,3 18 10 33 18 WNW 1021,6 0,0
26.10.2020 15:00:00 18,0 8,5 19 10 31 17 WNW 1021,4 0,0
26.10.2020 14:00:00 17,7 9,0 17 9 29 16 WNW 1022,0 0,0
26.10.2020 13:00:00 17,2 8,4 18 10 30 16 NW 1022,5 -
26.10.2020 12:00:00 17,2 7,0 16 9 33 18 NW 1022,8 0,0
26.10.2020 11:00:00 17,1 8,8 14 7 27 15 NNW 1022,4 0,0
26.10.2020 10:00:00 16,7 11,2 9 5 23 12 NNW 1022,2 0,0
26.10.2020 09:00:00 15,0 10,4 9 5 26 14 N 1021,7 0,0
26.10.2020 08:00:00 14,8 10,4 11 6 25 14 NNW 1020,7 0,0
26.10.2020 07:00:00 15,0 10,2 9 5 23 12 NNW 1020,3 -
26.10.2020 06:00:00 16,0 11,1 10 5 23 13 NNW 1020,1 0,0
26.10.2020 05:00:00 16,6 11,9 12 6 29 15 NNW 1019,4 0,0
26.10.2020 04:00:00 17,2 11,9 14 7 37 20 NW 1019,4 0,0
26.10.2020 03:00:00 17,8 14,1 23 12 34 18 NW 1019,5 0,0
26.10.2020 02:00:00 16,5 15,3 13 7 34 18 WNW 1019,3 0,2
26.10.2020 01:00:00 16,2 15,3 24 13 49 27 NW 1019,3 -

tt = temperature
td = dewpoint
ff = wind speed
fx = gusts
dd = wind direction
ppp = reduced air pressure
rr = precipitation

Next stations